createdAt,value
2022-10-09T00:00:48.067Z,90.79
2022-10-09T00:03:15.289Z,90.91
2022-10-09T00:05:41.800Z,90.94
2022-10-09T00:08:08.272Z,91.06
2022-10-09T00:10:35.086Z,91.07
2022-10-09T00:13:01.476Z,91.31
2022-10-09T00:15:29.032Z,90.74
2022-10-09T00:17:55.424Z,89.77
2022-10-09T00:20:21.791Z,90.30
2022-10-09T00:22:48.352Z,90.17
2022-10-09T00:25:15.028Z,89.84
2022-10-09T00:27:41.370Z,89.78
2022-10-09T00:30:08.411Z,89.93
2022-10-09T00:32:34.819Z,89.87
2022-10-09T00:35:01.190Z,89.20
2022-10-09T00:37:28.408Z,89.51
2022-10-09T00:39:54.786Z,91.21
2022-10-09T00:42:21.430Z,91.46
2022-10-09T00:44:57.294Z,91.19
2022-10-09T00:47:31.363Z,90.18
2022-10-09T00:50:03.864Z,92.05
2022-10-09T00:52:32.760Z,94.14
2022-10-09T00:55:01.290Z,93.73
2022-10-09T00:57:27.986Z,93.24
2022-10-09T00:59:54.446Z,92.77
2022-10-09T01:02:20.871Z,91.68
2022-10-09T01:04:47.381Z,91.48
2022-10-09T01:07:35.083Z,91.69
2022-10-09T01:10:19.285Z,91.13
2022-10-09T01:13:11.884Z,91.47
2022-10-09T01:15:48.496Z,91.12
2022-10-09T01:18:22.954Z,90.76
2022-10-09T01:21:08.624Z,90.53
2022-10-09T01:23:46.137Z,90.54
2022-10-09T01:26:25.504Z,90.93
2022-10-09T01:29:02.679Z,90.77
2022-10-09T01:31:33.605Z,91.21
2022-10-09T01:34:01.695Z,91.27
2022-10-09T01:36:30.320Z,90.92
2022-10-09T01:39:02.940Z,91.20
2022-10-09T01:41:29.806Z,90.92
2022-10-09T01:43:56.414Z,91.16
2022-10-09T01:46:29.650Z,90.58
2022-10-09T01:49:14.652Z,90.49
2022-10-09T01:51:52.054Z,90.72
2022-10-09T01:54:32.357Z,90.81
2022-10-09T01:57:02.212Z,91.40
2022-10-09T01:59:30.012Z,91.54
2022-10-09T02:01:57.817Z,91.62
2022-10-09T02:04:25.318Z,91.22
2022-10-09T02:06:52.107Z,91.27
2022-10-09T02:09:18.998Z,90.98
2022-10-09T02:11:51.086Z,90.61
2022-10-09T02:14:18.108Z,91.03
2022-10-09T02:16:48.359Z,90.44
2022-10-09T02:19:28.628Z,90.75
2022-10-09T02:22:09.949Z,90.71
2022-10-09T02:24:39.631Z,90.18
2022-10-09T02:27:06.727Z,90.23
2022-10-09T02:29:33.421Z,90.58
2022-10-09T02:32:00.018Z,90.09
2022-10-09T02:34:26.412Z,89.82
2022-10-09T02:36:52.778Z,89.98
2022-10-09T02:39:19.215Z,90.02
2022-10-09T02:41:45.598Z,89.93
2022-10-09T02:44:12.033Z,89.83
2022-10-09T02:46:38.679Z,90.92
2022-10-09T02:49:06.002Z,90.97
2022-10-09T02:51:32.662Z,91.07
2022-10-09T02:54:01.657Z,90.50
2022-10-09T02:56:28.333Z,90.25
2022-10-09T02:58:54.720Z,90.41
2022-10-09T03:01:21.670Z,90.64
2022-10-09T03:03:48.087Z,90.47
2022-10-09T03:06:17.424Z,90.78
2022-10-09T03:08:46.109Z,90.70
2022-10-09T03:11:14.173Z,90.75
2022-10-09T03:13:40.904Z,90.73
2022-10-09T03:16:12.990Z,90.70
2022-10-09T03:18:39.725Z,90.68
2022-10-09T03:21:07.765Z,91.03
2022-10-09T03:23:34.324Z,90.68
2022-10-09T03:26:04.426Z,90.57
2022-10-09T03:28:31.904Z,90.85
2022-10-09T03:30:58.565Z,91.04
2022-10-09T03:33:24.951Z,91.02
2022-10-09T03:35:51.361Z,91.36
2022-10-09T03:38:17.891Z,91.04
2022-10-09T03:40:44.254Z,90.34
2022-10-09T03:43:10.711Z,90.86
2022-10-09T03:45:41.335Z,90.98
2022-10-09T03:48:09.199Z,91.21
2022-10-09T03:50:37.400Z,90.77
2022-10-09T03:53:04.282Z,90.59
2022-10-09T03:55:30.680Z,90.77
2022-10-09T03:57:57.171Z,90.05
2022-10-09T04:00:23.648Z,90.40
2022-10-09T04:02:50.329Z,90.17
2022-10-09T04:05:17.316Z,90.21
2022-10-09T04:07:44.071Z,90.77
2022-10-09T04:10:10.709Z,91.00
2022-10-09T04:12:37.380Z,91.53
2022-10-09T04:15:04.460Z,91.24
2022-10-09T04:17:31.068Z,91.66
2022-10-09T04:19:57.514Z,91.90
2022-10-09T04:22:23.866Z,91.74
2022-10-09T04:24:50.263Z,91.34
2022-10-09T04:27:16.977Z,91.28
2022-10-09T04:29:43.406Z,91.37
2022-10-09T04:32:09.797Z,91.07
2022-10-09T04:34:36.173Z,91.00
2022-10-09T04:37:02.706Z,90.93
2022-10-09T04:39:29.499Z,91.09
2022-10-09T04:41:55.853Z,91.15
2022-10-09T04:44:22.396Z,90.40
2022-10-09T04:46:51.230Z,90.64
2022-10-09T04:49:18.012Z,91.26
2022-10-09T04:51:44.651Z,90.79
2022-10-09T04:54:12.071Z,90.58
2022-10-09T04:56:38.468Z,90.26
2022-10-09T04:59:05.036Z,90.88
2022-10-09T05:01:37.083Z,90.53
2022-10-09T05:04:04.554Z,90.67
2022-10-09T05:06:30.956Z,90.69
2022-10-09T05:08:57.382Z,91.00
2022-10-09T05:11:25.392Z,90.78
2022-10-09T05:13:57.449Z,90.68
2022-10-09T05:16:26.926Z,90.90
2022-10-09T05:18:55.653Z,91.37
2022-10-09T05:21:22.707Z,91.46
2022-10-09T05:23:49.976Z,91.60
2022-10-09T05:26:18.929Z,91.92
2022-10-09T05:28:45.603Z,91.78
2022-10-09T05:31:19.495Z,91.50
2022-10-09T05:33:46.154Z,91.43
2022-10-09T05:36:13.044Z,91.46
2022-10-09T05:38:39.592Z,91.29
2022-10-09T05:41:08.126Z,91.13
2022-10-09T05:43:37.299Z,91.20
2022-10-09T05:46:14.087Z,91.15
2022-10-09T05:48:43.611Z,91.07
2022-10-09T05:51:38.871Z,90.62
2022-10-09T05:54:09.678Z,90.50
2022-10-09T05:56:38.737Z,90.31
2022-10-09T05:59:16.943Z,91.05
2022-10-09T06:01:48.709Z,89.75
2022-10-09T06:04:21.036Z,85.26
2022-10-09T06:06:48.564Z,80.83
2022-10-09T06:09:17.797Z,75.02
2022-10-09T06:11:44.656Z,71.33
2022-10-09T06:14:13.167Z,68.43
2022-10-09T06:16:42.322Z,67.52
2022-10-09T06:19:12.284Z,66.67
2022-10-09T06:21:38.673Z,66.53
2022-10-09T06:24:06.774Z,68.10
2022-10-09T06:26:33.756Z,69.43
2022-10-09T06:29:01.896Z,69.38
2022-10-09T06:31:30.621Z,70.86
2022-10-09T06:33:59.707Z,72.49
2022-10-09T06:36:28.528Z,72.89
2022-10-09T06:38:55.303Z,72.07
2022-10-09T06:41:24.362Z,71.60
2022-10-09T06:43:55.787Z,70.17
2022-10-09T06:46:24.649Z,71.19
2022-10-09T06:48:51.386Z,69.78
2022-10-09T06:51:20.850Z,67.72
2022-10-09T06:53:51.755Z,67.72
2022-10-09T06:56:19.979Z,68.15
2022-10-09T06:58:46.986Z,69.42
2022-10-09T07:01:14.948Z,70.50
2022-10-09T07:03:43.283Z,71.17
2022-10-09T07:06:17.869Z,72.79
2022-10-09T07:08:46.771Z,73.70
2022-10-09T07:11:16.087Z,73.59
2022-10-09T07:13:43.673Z,74.08
2022-10-09T07:16:11.248Z,73.44
2022-10-09T07:18:38.654Z,72.08
2022-10-09T07:21:07.681Z,71.38
2022-10-09T07:23:35.987Z,71.15
2022-10-09T07:26:17.597Z,71.76
2022-10-09T07:28:44.965Z,71.64
2022-10-09T07:31:12.505Z,71.11
2022-10-09T07:33:39.282Z,67.24
2022-10-09T07:36:07.850Z,65.74
2022-10-09T07:38:34.265Z,61.91
2022-10-09T07:41:02.652Z,59.52
2022-10-09T07:43:29.446Z,57.14
2022-10-09T07:46:00.436Z,55.17
2022-10-09T07:48:26.926Z,53.37
2022-10-09T07:50:53.838Z,55.42
2022-10-09T07:53:23.033Z,52.76
2022-10-09T07:55:50.069Z,52.09
2022-10-09T07:58:17.090Z,49.99
2022-10-09T08:00:44.112Z,50.32
2022-10-09T08:03:11.129Z,49.70
2022-10-09T08:05:37.536Z,50.58
2022-10-09T08:08:04.018Z,49.85
2022-10-09T08:10:31.403Z,49.30
2022-10-09T08:12:57.860Z,48.85
2022-10-09T08:15:24.787Z,48.32
2022-10-09T08:17:55.071Z,48.73
2022-10-09T08:20:21.645Z,48.34
2022-10-09T08:22:48.325Z,48.41
2022-10-09T08:25:14.985Z,47.21
2022-10-09T08:27:41.380Z,46.44
2022-10-09T08:30:08.572Z,45.97
2022-10-09T08:32:34.999Z,44.96
2022-10-09T08:35:01.742Z,44.98
2022-10-09T08:37:28.125Z,47.34
2022-10-09T08:39:54.536Z,50.34
2022-10-09T08:42:42.538Z,51.57
2022-10-09T08:45:19.248Z,51.97
2022-10-09T08:47:47.050Z,52.20
2022-10-09T08:50:19.939Z,51.44
2022-10-09T08:52:52.302Z,48.52
2022-10-09T08:55:43.311Z,49.55
2022-10-09T08:58:16.149Z,49.51
2022-10-09T09:01:02.773Z,49.46
2022-10-09T09:03:45.010Z,50.14
2022-10-09T09:06:23.638Z,48.92
2022-10-09T09:09:10.613Z,50.82
2022-10-09T09:11:51.500Z,52.64
2022-10-09T09:14:42.216Z,52.29
2022-10-09T09:17:23.455Z,53.07
2022-10-09T09:19:58.934Z,51.96
2022-10-09T09:22:26.989Z,51.31
2022-10-09T09:24:57.181Z,52.26
2022-10-09T09:27:34.964Z,53.39
2022-10-09T09:30:11.979Z,52.19
2022-10-09T09:33:09.710Z,50.77
2022-10-09T09:35:46.970Z,50.19
2022-10-09T09:38:14.574Z,49.92
2022-10-09T09:40:46.546Z,45.25
2022-10-09T09:43:19.132Z,43.35
2022-10-09T09:45:46.520Z,41.70
2022-10-09T09:48:22.877Z,42.78
2022-10-09T09:51:10.351Z,40.87
2022-10-09T09:53:53.768Z,43.26
2022-10-09T09:56:20.398Z,40.15
2022-10-09T09:58:53.158Z,38.39
2022-10-09T10:01:31.143Z,37.25
2022-10-09T10:04:03.556Z,39.77
2022-10-09T10:06:41.850Z,41.41
2022-10-09T10:09:16.769Z,42.55
2022-10-09T10:11:46.831Z,41.60
2022-10-09T10:14:16.936Z,43.95
2022-10-09T10:16:50.767Z,42.82
2022-10-09T10:19:30.964Z,40.42
2022-10-09T10:21:59.858Z,39.90
2022-10-09T10:24:38.348Z,37.95
2022-10-09T10:27:16.167Z,37.23
2022-10-09T10:29:45.269Z,37.51
2022-10-09T10:32:21.505Z,35.83
2022-10-09T10:34:55.416Z,37.54
2022-10-09T10:37:38.663Z,37.28
2022-10-09T10:40:20.702Z,36.86
2022-10-09T10:43:11.292Z,36.02
2022-10-09T10:46:21.047Z,35.20
2022-10-09T10:48:47.893Z,37.08
2022-10-09T10:51:57.114Z,36.19
2022-10-09T10:54:47.945Z,33.09
2022-10-09T10:57:39.614Z,33.19
2022-10-09T11:00:19.310Z,33.45
2022-10-09T11:02:46.103Z,35.99
2022-10-09T11:05:22.837Z,32.98
2022-10-09T11:08:20.570Z,35.20
2022-10-09T11:11:11.631Z,33.01
2022-10-09T11:14:26.837Z,32.47
2022-10-09T11:17:12.259Z,33.55
2022-10-09T11:20:23.825Z,32.77
2022-10-09T11:23:08.331Z,37.00
2022-10-09T11:25:56.546Z,36.11
2022-10-09T11:28:30.581Z,37.00
2022-10-09T11:31:14.638Z,36.28
2022-10-09T11:33:52.297Z,33.96
2022-10-09T11:36:33.075Z,33.09
2022-10-09T11:39:08.285Z,32.67
2022-10-09T11:41:36.824Z,34.00
2022-10-09T11:44:27.831Z,33.07
2022-10-09T11:47:09.500Z,32.96
2022-10-09T11:49:46.400Z,33.41
2022-10-09T11:52:26.330Z,34.21
2022-10-09T11:54:55.411Z,36.12
2022-10-09T11:57:29.360Z,35.85
2022-10-09T12:00:10.833Z,34.04
2022-10-09T12:02:37.965Z,33.25
2022-10-09T12:05:47.345Z,33.42
2022-10-09T12:08:25.500Z,31.03
2022-10-09T12:11:00.879Z,30.36
2022-10-09T12:14:01.594Z,32.18
2022-10-09T12:16:40.020Z,31.37
2022-10-09T12:19:15.636Z,29.87
2022-10-09T12:21:52.641Z,31.63
2022-10-09T12:24:49.616Z,30.33
2022-10-09T12:27:26.829Z,29.23
2022-10-09T12:30:16.454Z,27.04
2022-10-09T12:33:14.523Z,29.03
2022-10-09T12:35:45.794Z,27.64
2022-10-09T12:38:33.817Z,28.92
2022-10-09T12:41:05.153Z,30.21
2022-10-09T12:43:43.218Z,28.63
2022-10-09T12:46:09.695Z,27.98
2022-10-09T12:48:40.227Z,27.79
2022-10-09T12:51:35.865Z,27.87
2022-10-09T12:54:08.568Z,26.76
2022-10-09T12:56:38.585Z,27.40
2022-10-09T12:59:07.022Z,27.88
2022-10-09T13:01:35.035Z,29.01
2022-10-09T13:04:04.200Z,29.49
2022-10-09T13:06:42.887Z,26.68
2022-10-09T13:09:19.964Z,27.44
2022-10-09T13:11:53.175Z,27.94
2022-10-09T13:14:34.999Z,29.04
2022-10-09T13:17:02.181Z,26.16
2022-10-09T13:19:31.821Z,28.71
2022-10-09T13:22:18.470Z,26.74
2022-10-09T13:24:45.046Z,29.00
2022-10-09T13:27:14.514Z,28.51
2022-10-09T13:29:43.892Z,27.54
2022-10-09T13:32:15.597Z,25.99
2022-10-09T13:34:42.300Z,27.05
2022-10-09T13:37:14.063Z,27.83
2022-10-09T13:39:52.538Z,26.61
2022-10-09T13:42:20.468Z,25.60
2022-10-09T13:44:51.537Z,23.83
2022-10-09T13:47:23.361Z,25.94
2022-10-09T13:49:57.072Z,27.88
2022-10-09T13:52:23.508Z,27.70
2022-10-09T13:54:49.981Z,24.63
2022-10-09T13:57:16.543Z,24.08
2022-10-09T13:59:43.067Z,24.76
2022-10-09T14:02:10.860Z,25.86
2022-10-09T14:04:40.656Z,23.91
2022-10-09T14:07:07.879Z,24.16
2022-10-09T14:09:38.560Z,24.01
2022-10-09T14:12:07.863Z,26.47
2022-10-09T14:14:34.336Z,30.55
2022-10-09T14:17:00.729Z,33.64
2022-10-09T14:19:28.017Z,33.77
2022-10-09T14:22:02.648Z,35.08
2022-10-09T14:24:31.324Z,37.33
2022-10-09T14:27:00.405Z,38.30
2022-10-09T14:29:28.901Z,40.56
2022-10-09T14:31:55.262Z,41.20
2022-10-09T14:34:21.952Z,41.52
2022-10-09T14:36:48.938Z,41.96
2022-10-09T14:39:15.902Z,43.09
2022-10-09T14:41:42.317Z,43.22
2022-10-09T14:44:19.193Z,42.81
2022-10-09T14:46:45.558Z,42.62
2022-10-09T14:49:12.207Z,42.74
2022-10-09T14:51:39.867Z,42.95
2022-10-09T14:54:07.872Z,43.97
2022-10-09T14:56:34.760Z,45.17
2022-10-09T14:59:01.307Z,45.87
2022-10-09T15:01:29.519Z,45.66
2022-10-09T15:03:56.047Z,45.37
2022-10-09T15:06:25.412Z,44.08
2022-10-09T15:08:56.086Z,45.67
2022-10-09T15:11:23.362Z,45.71
2022-10-09T15:13:49.744Z,45.45
2022-10-09T15:16:17.370Z,46.18
2022-10-09T15:18:44.452Z,44.41
2022-10-09T15:21:16.832Z,44.40
2022-10-09T15:23:43.537Z,45.04
2022-10-09T15:26:10.463Z,45.15
2022-10-09T15:28:44.375Z,45.31
2022-10-09T15:31:23.980Z,45.17
2022-10-09T15:34:04.012Z,45.68
2022-10-09T15:36:35.217Z,45.54
2022-10-09T15:39:06.770Z,44.94
2022-10-09T15:41:38.074Z,46.32
2022-10-09T15:44:13.755Z,45.92
2022-10-09T15:46:47.133Z,46.07
2022-10-09T15:49:19.365Z,45.89
2022-10-09T15:51:49.459Z,47.14
2022-10-09T15:54:40.799Z,46.95
2022-10-09T15:57:09.915Z,47.83
2022-10-09T15:59:41.332Z,48.01
2022-10-09T16:02:09.518Z,47.54
2022-10-09T16:04:45.452Z,48.11
2022-10-09T16:07:13.651Z,48.71
2022-10-09T16:09:40.109Z,49.11
2022-10-09T16:12:06.516Z,50.08
2022-10-09T16:14:33.156Z,49.80
2022-10-09T16:16:59.577Z,50.65
2022-10-09T16:19:25.985Z,51.21
2022-10-09T16:22:01.402Z,52.16
2022-10-09T16:24:27.764Z,52.85
2022-10-09T16:26:56.615Z,53.18
2022-10-09T16:29:23.053Z,53.23
2022-10-09T16:32:08.688Z,53.18
2022-10-09T16:34:54.331Z,53.71
2022-10-09T16:37:23.793Z,53.88
2022-10-09T16:39:50.205Z,55.52
2022-10-09T16:42:17.096Z,55.59
2022-10-09T16:44:43.574Z,57.13
2022-10-09T16:47:09.975Z,57.94
2022-10-09T16:49:36.368Z,57.91
2022-10-09T16:52:02.981Z,59.29
2022-10-09T16:54:29.424Z,60.61
2022-10-09T16:56:55.821Z,61.90
2022-10-09T16:59:22.590Z,62.96
2022-10-09T17:01:49.545Z,62.72
2022-10-09T17:04:19.042Z,63.78
2022-10-09T17:06:50.698Z,64.75
2022-10-09T17:09:29.156Z,65.79
2022-10-09T17:12:11.026Z,66.53
2022-10-09T17:14:37.765Z,67.92
2022-10-09T17:17:06.085Z,68.68
2022-10-09T17:19:44.800Z,69.42
2022-10-09T17:22:13.576Z,70.01
2022-10-09T17:24:42.367Z,70.22
2022-10-09T17:27:11.869Z,70.98
2022-10-09T17:29:40.462Z,71.61
2022-10-09T17:32:09.173Z,72.66
2022-10-09T17:34:35.889Z,73.60
2022-10-09T17:37:02.349Z,74.17
2022-10-09T17:39:28.817Z,74.10
2022-10-09T17:41:55.210Z,74.95
2022-10-09T17:44:23.357Z,75.87
2022-10-09T17:46:49.761Z,75.77
2022-10-09T17:49:16.219Z,77.67
2022-10-09T17:51:42.592Z,77.56
2022-10-09T17:54:13.094Z,77.88
2022-10-09T17:56:40.269Z,78.14
2022-10-09T17:59:07.185Z,79.49
2022-10-09T18:01:39.081Z,79.49
2022-10-09T18:04:05.577Z,78.42
2022-10-09T18:06:33.607Z,79.01
2022-10-09T18:09:00.560Z,79.98
2022-10-09T18:11:27.789Z,80.67
2022-10-09T18:13:54.529Z,79.28
2022-10-09T18:16:31.368Z,79.50
2022-10-09T18:19:08.537Z,79.92
2022-10-09T18:21:35.390Z,80.69
2022-10-09T18:24:01.877Z,80.32
2022-10-09T18:26:28.405Z,80.03
2022-10-09T18:28:54.769Z,79.86
2022-10-09T18:31:26.375Z,79.76
2022-10-09T18:33:53.125Z,80.04
2022-10-09T18:36:22.894Z,80.47
2022-10-09T18:38:51.779Z,81.09
2022-10-09T18:41:19.453Z,81.24
2022-10-09T18:43:46.927Z,80.66
2022-10-09T18:46:18.824Z,82.08
2022-10-09T18:48:46.177Z,81.72
2022-10-09T18:51:18.694Z,82.48
2022-10-09T18:53:51.357Z,82.61
2022-10-09T18:56:19.698Z,82.69
2022-10-09T18:58:48.166Z,82.85
2022-10-09T19:01:14.638Z,82.41
2022-10-09T19:03:45.936Z,82.85
2022-10-09T19:06:15.696Z,82.72
2022-10-09T19:08:44.182Z,82.95
2022-10-09T19:11:16.358Z,82.65
2022-10-09T19:13:43.724Z,82.58
2022-10-09T19:16:10.870Z,82.99
2022-10-09T19:18:37.873Z,83.55
2022-10-09T19:21:04.617Z,83.98
2022-10-09T19:23:31.431Z,83.74
2022-10-09T19:25:59.073Z,83.64
2022-10-09T19:28:30.483Z,83.73
2022-10-09T19:30:57.201Z,83.46
2022-10-09T19:33:23.596Z,83.93
2022-10-09T19:35:51.617Z,84.41
2022-10-09T19:38:18.563Z,84.39
2022-10-09T19:40:45.464Z,83.38
2022-10-09T19:43:13.020Z,83.84
2022-10-09T19:45:40.086Z,84.26
2022-10-09T19:48:06.942Z,84.61
2022-10-09T19:50:33.674Z,84.17
2022-10-09T19:53:03.180Z,84.68
2022-10-09T19:55:34.641Z,85.08
2022-10-09T19:58:01.517Z,85.08
2022-10-09T20:00:27.978Z,84.23
2022-10-09T20:02:54.482Z,85.60
2022-10-09T20:05:21.538Z,85.36
2022-10-09T20:07:47.996Z,85.36
2022-10-09T20:10:14.841Z,85.72
2022-10-09T20:12:41.304Z,85.71
2022-10-09T20:15:08.254Z,85.92
2022-10-09T20:17:34.658Z,84.87
2022-10-09T20:20:05.078Z,85.21
2022-10-09T20:22:31.746Z,85.03
2022-10-09T20:24:58.202Z,86.48
2022-10-09T20:27:24.569Z,86.43
2022-10-09T20:29:53.087Z,86.18
2022-10-09T20:32:19.636Z,87.05
2022-10-09T20:34:46.087Z,86.46
2022-10-09T20:37:12.537Z,86.08
2022-10-09T20:39:38.917Z,86.39
2022-10-09T20:42:05.386Z,86.77
2022-10-09T20:44:32.099Z,86.08
2022-10-09T20:46:58.511Z,85.74
2022-10-09T20:49:24.883Z,86.13
2022-10-09T20:51:53.068Z,85.73
2022-10-09T20:54:21.435Z,85.17
2022-10-09T20:56:48.871Z,86.08
2022-10-09T20:59:16.293Z,85.76
2022-10-09T21:01:43.117Z,86.14
2022-10-09T21:04:11.148Z,85.41
2022-10-09T21:06:38.145Z,86.14
2022-10-09T21:09:05.014Z,85.45
2022-10-09T21:11:34.916Z,86.96
2022-10-09T21:14:02.827Z,86.67
2022-10-09T21:16:29.642Z,86.40
2022-10-09T21:19:01.724Z,86.54
2022-10-09T21:21:29.698Z,87.82
2022-10-09T21:23:58.087Z,87.45
2022-10-09T21:26:26.246Z,88.19
2022-10-09T21:28:56.907Z,88.16
2022-10-09T21:31:30.006Z,88.59
2022-10-09T21:33:57.988Z,88.61
2022-10-09T21:36:50.810Z,88.40
2022-10-09T21:39:22.628Z,88.88
2022-10-09T21:41:49.001Z,87.77
2022-10-09T21:44:15.665Z,87.52
2022-10-09T21:46:42.099Z,87.69
2022-10-09T21:49:23.986Z,87.37
2022-10-09T21:51:51.034Z,87.29
2022-10-09T21:54:17.674Z,87.21
2022-10-09T21:56:44.049Z,87.50
2022-10-09T21:59:10.607Z,87.74
2022-10-09T22:01:37.019Z,86.63
2022-10-09T22:04:03.890Z,86.93
2022-10-09T22:06:30.236Z,88.48
2022-10-09T22:08:58.337Z,88.31
2022-10-09T22:11:24.673Z,88.23
2022-10-09T22:13:51.035Z,88.05
2022-10-09T22:16:17.483Z,87.36
2022-10-09T22:18:43.960Z,86.52
2022-10-09T22:21:13.573Z,87.75
2022-10-09T22:23:41.117Z,88.66
2022-10-09T22:26:11.023Z,88.13
2022-10-09T22:28:37.799Z,87.97
2022-10-09T22:31:11.412Z,87.72
2022-10-09T22:33:38.052Z,87.38
2022-10-09T22:36:13.797Z,88.22
2022-10-09T22:38:41.026Z,88.84
2022-10-09T22:41:13.682Z,90.26
2022-10-09T22:43:41.470Z,88.58
2022-10-09T22:46:09.974Z,88.57
2022-10-09T22:48:36.991Z,87.92
2022-10-09T22:51:08.876Z,87.18
2022-10-09T22:53:36.805Z,87.59
2022-10-09T22:56:12.642Z,87.74
2022-10-09T22:58:39.029Z,87.93
2022-10-09T23:01:12.500Z,88.82
2022-10-09T23:03:38.985Z,88.15
2022-10-09T23:06:23.868Z,89.06
2022-10-09T23:08:50.330Z,89.44
2022-10-09T23:11:18.285Z,90.76
2022-10-09T23:13:46.183Z,89.99
2022-10-09T23:16:14.597Z,91.41
2022-10-09T23:18:42.188Z,90.28
2022-10-09T23:21:11.895Z,90.37
2022-10-09T23:23:38.464Z,89.67
2022-10-09T23:26:06.293Z,91.39
2022-10-09T23:28:33.581Z,90.39
2022-10-09T23:31:04.553Z,90.34
2022-10-09T23:33:31.057Z,89.54
2022-10-09T23:35:57.460Z,88.27
2022-10-09T23:38:24.344Z,89.01
2022-10-09T23:41:04.239Z,89.55
2022-10-09T23:43:32.481Z,90.76
2022-10-09T23:46:01.347Z,90.96
2022-10-09T23:48:28.675Z,91.40
2022-10-09T23:50:56.455Z,91.27
2022-10-09T23:53:24.384Z,90.94
2022-10-09T23:55:50.797Z,90.61
2022-10-09T23:58:20.710Z,90.21
